createdAt,value
2019-02-09T00:05:26.398Z,1.67
2019-02-09T00:11:30.772Z,2.30
2019-02-09T00:17:35.149Z,1.87
2019-02-09T00:23:39.491Z,1.62
2019-02-09T00:29:46.483Z,1.20
2019-02-09T00:35:49.903Z,1.70
2019-02-09T00:41:54.192Z,1.70
2019-02-09T00:47:58.558Z,2.17
2019-02-09T00:54:03.075Z,2.17
2019-02-09T01:00:13.538Z,2.77
2019-02-09T01:06:17.864Z,2.58
2019-02-09T01:12:22.298Z,2.72
2019-02-09T01:18:26.544Z,2.15
2019-02-09T01:24:30.758Z,1.90
2019-02-09T01:30:35.075Z,2.02
2019-02-09T01:36:39.452Z,1.90
2019-02-09T01:42:43.673Z,1.47
2019-02-09T01:48:47.917Z,2.52
2019-02-09T01:54:52.224Z,1.90
2019-02-09T02:00:56.502Z,2.60
2019-02-09T02:07:00.910Z,2.52
2019-02-09T02:13:07.855Z,2.20
2019-02-09T02:19:12.123Z,2.27
2019-02-09T02:25:17.701Z,2.75
2019-02-09T02:31:22.167Z,3.10
2019-02-09T02:37:26.505Z,2.40
2019-02-09T02:43:30.893Z,2.22
2019-02-09T02:49:35.508Z,2.33
2019-02-09T02:55:39.807Z,2.45
2019-02-09T03:01:44.029Z,2.30
2019-02-09T03:07:48.289Z,1.87
2019-02-09T03:13:52.564Z,1.67
2019-02-09T03:19:56.966Z,2.00
2019-02-09T03:26:01.260Z,1.20
2019-02-09T03:32:05.499Z,1.70
2019-02-09T03:38:09.819Z,1.30
2019-02-09T03:44:14.075Z,1.60
2019-02-09T03:50:19.000Z,1.70
2019-02-09T03:56:23.489Z,1.80
2019-02-09T04:02:27.721Z,2.10
2019-02-09T04:08:32.067Z,1.20
2019-02-09T04:14:36.348Z,1.37
2019-02-09T04:20:40.593Z,1.57
2019-02-09T04:26:44.982Z,1.65
2019-02-09T04:32:49.278Z,2.10
2019-02-09T04:38:53.661Z,1.50
2019-02-09T04:44:58.258Z,2.55
2019-02-09T04:51:02.468Z,3.00
2019-02-09T04:57:06.826Z,2.65
2019-02-09T05:03:11.127Z,2.37
2019-02-09T05:09:15.450Z,2.47
2019-02-09T05:15:20.102Z,1.75
2019-02-09T05:21:24.382Z,2.27
2019-02-09T05:27:28.686Z,3.00
2019-02-09T05:33:32.900Z,2.92
2019-02-09T05:39:37.222Z,2.85
2019-02-09T05:45:41.452Z,3.35
2019-02-09T05:51:45.671Z,3.22
2019-02-09T05:57:49.905Z,3.35
2019-02-09T06:03:54.351Z,2.95
2019-02-09T06:09:58.597Z,3.40
2019-02-09T06:16:03.011Z,2.70
2019-02-09T06:22:09.442Z,2.50
2019-02-09T06:28:13.768Z,2.30
2019-02-09T06:34:20.464Z,2.90
2019-02-09T06:40:25.355Z,3.25
2019-02-09T06:46:29.697Z,2.65
2019-02-09T06:52:34.588Z,3.60
2019-02-09T06:58:39.941Z,2.42
2019-02-09T07:04:44.550Z,2.75
2019-02-09T07:10:48.863Z,3.40
2019-02-09T07:16:53.195Z,3.70
2019-02-09T07:22:57.488Z,4.33
2019-02-09T07:29:01.851Z,4.42
2019-02-09T07:35:07.276Z,3.62
2019-02-09T07:41:11.519Z,3.58
2019-02-09T07:47:15.834Z,3.15
2019-02-09T07:53:20.171Z,3.25
2019-02-09T07:59:24.549Z,2.80
2019-02-09T08:05:30.798Z,2.52
2019-02-09T08:11:35.321Z,3.05
2019-02-09T08:17:39.714Z,3.30
2019-02-09T08:23:44.043Z,3.67
2019-02-09T08:29:48.354Z,3.12
2019-02-09T08:35:52.648Z,3.60
2019-02-09T08:42:00.088Z,3.50
2019-02-09T08:48:04.893Z,2.90
2019-02-09T08:54:09.303Z,3.50
2019-02-09T09:00:16.057Z,2.72
2019-02-09T09:06:20.316Z,2.70
2019-02-09T09:12:24.843Z,2.33
2019-02-09T09:18:29.102Z,2.10
2019-02-09T09:24:33.514Z,2.50
2019-02-09T09:30:38.140Z,1.90
2019-02-09T09:36:42.481Z,2.50
2019-02-09T09:42:46.962Z,1.87
2019-02-09T09:48:51.573Z,2.87
2019-02-09T09:54:55.990Z,3.12
2019-02-09T10:01:00.195Z,3.47
2019-02-09T10:07:04.514Z,1.92
2019-02-09T10:13:08.861Z,3.15
2019-02-09T10:19:13.127Z,2.58
2019-02-09T10:25:19.209Z,2.33
2019-02-09T10:31:24.261Z,3.02
2019-02-09T10:37:30.661Z,3.17
2019-02-09T10:43:35.497Z,3.30
2019-02-09T10:49:39.773Z,4.05
2019-02-09T10:55:44.199Z,4.30
2019-02-09T11:01:48.861Z,3.65
2019-02-09T11:07:53.204Z,3.52
2019-02-09T11:13:57.597Z,4.08
2019-02-09T11:20:01.955Z,3.35
2019-02-09T11:26:06.403Z,3.05
2019-02-09T11:32:10.637Z,3.45
2019-02-09T11:38:14.863Z,2.25
2019-02-09T11:44:19.157Z,3.15
2019-02-09T11:50:23.452Z,1.70
2019-02-09T11:56:27.689Z,3.10
2019-02-09T12:02:32.572Z,2.62
2019-02-09T12:08:37.354Z,3.70
2019-02-09T12:14:41.636Z,2.90
2019-02-09T12:20:46.226Z,2.70
2019-02-09T12:26:50.628Z,2.90
2019-02-09T12:32:55.202Z,2.87
2019-02-09T12:38:59.500Z,3.30
2019-02-09T12:45:04.376Z,3.75
2019-02-09T12:51:08.698Z,3.95
2019-02-09T12:57:13.060Z,3.45
2019-02-09T13:03:30.718Z,3.37
2019-02-09T13:09:28.858Z,3.15
2019-02-09T13:15:33.132Z,3.45
2019-02-09T13:21:37.478Z,3.17
2019-02-09T13:27:41.730Z,3.83
2019-02-09T13:33:45.963Z,3.25
2019-02-09T13:39:50.273Z,3.20
2019-02-09T13:45:54.591Z,3.50
2019-02-09T13:51:58.915Z,3.62
2019-02-09T13:58:03.138Z,3.33
2019-02-09T14:04:07.367Z,3.00
2019-02-09T14:10:13.199Z,2.75
2019-02-09T14:16:17.585Z,3.20
2019-02-09T14:22:21.982Z,3.27
2019-02-09T14:28:28.719Z,3.58
2019-02-09T14:34:32.977Z,3.40
2019-02-09T14:40:37.607Z,3.65
2019-02-09T14:46:42.037Z,2.52
2019-02-09T14:52:46.627Z,2.65
2019-02-09T14:58:51.052Z,2.55
2019-02-09T15:04:55.329Z,2.42
2019-02-09T15:10:59.829Z,2.50
2019-02-09T15:17:05.499Z,3.15
2019-02-09T15:23:10.298Z,3.25
2019-02-09T15:29:14.584Z,3.87
2019-02-09T15:35:20.224Z,3.33
2019-02-09T15:41:24.562Z,3.58
2019-02-09T15:47:28.896Z,3.12
2019-02-09T15:53:33.297Z,3.27
2019-02-09T15:59:37.584Z,3.10
2019-02-09T16:05:42.078Z,3.10
2019-02-09T16:11:46.369Z,2.30
2019-02-09T16:17:50.694Z,2.17
2019-02-09T16:23:54.902Z,2.30
2019-02-09T16:29:59.230Z,3.08
2019-02-09T16:36:03.558Z,3.50
2019-02-09T16:42:07.979Z,3.58
2019-02-09T16:48:12.266Z,2.80
2019-02-09T16:54:16.552Z,3.30
2019-02-09T17:00:32.627Z,3.98
2019-02-09T17:06:36.984Z,4.58
2019-02-09T17:12:41.386Z,3.85
2019-02-09T17:18:45.699Z,4.20
2019-02-09T17:24:50.759Z,3.90
2019-02-09T17:30:55.070Z,3.42
2019-02-09T17:36:59.461Z,3.62
2019-02-09T17:43:04.339Z,3.75
2019-02-09T17:49:08.688Z,3.08
2019-02-09T17:55:15.263Z,3.12
2019-02-09T18:01:19.573Z,3.35
2019-02-09T18:07:23.791Z,3.05
2019-02-09T18:13:28.179Z,2.92
2019-02-09T18:19:33.211Z,3.70
2019-02-09T18:25:37.715Z,3.05
2019-02-09T18:31:42.043Z,3.83
2019-02-09T18:37:46.564Z,3.50
2019-02-09T18:43:50.821Z,3.72
2019-02-09T18:49:55.148Z,3.87
2019-02-09T18:55:59.334Z,3.65
2019-02-09T19:02:03.528Z,4.30
2019-02-09T19:08:08.328Z,4.30
2019-02-09T19:14:12.676Z,5.03
2019-02-09T19:20:25.468Z,4.33
2019-02-09T19:26:29.720Z,4.30
2019-02-09T19:32:35.184Z,5.30
2019-02-09T19:38:39.629Z,4.60
2019-02-09T19:44:43.901Z,4.65
2019-02-09T19:50:48.198Z,3.85
2019-02-09T19:56:52.863Z,5.58
2019-02-09T20:02:57.196Z,7.15
2019-02-09T20:09:01.566Z,4.60
2019-02-09T20:15:06.943Z,4.17
2019-02-09T20:21:11.178Z,4.10
2019-02-09T20:27:16.688Z,3.87
2019-02-09T20:33:21.143Z,3.55
2019-02-09T20:39:25.441Z,4.42
2019-02-09T20:45:29.754Z,3.60
2019-02-09T20:51:34.001Z,8.15
2019-02-09T20:57:38.275Z,4.67
2019-02-09T21:03:42.603Z,3.87
2019-02-09T21:09:46.891Z,3.67
2019-02-09T21:15:51.217Z,3.87
2019-02-09T21:21:55.593Z,3.45
2019-02-09T21:27:59.918Z,3.08
2019-02-09T21:34:04.302Z,3.35
2019-02-09T21:40:11.370Z,4.28
2019-02-09T21:46:15.673Z,3.98
2019-02-09T21:52:19.892Z,3.90
2019-02-09T21:58:24.195Z,3.08
2019-02-09T22:04:28.396Z,4.05
2019-02-09T22:10:34.064Z,2.80
2019-02-09T22:16:38.731Z,2.92
2019-02-09T22:22:43.213Z,3.42
2019-02-09T22:28:47.466Z,3.40
2019-02-09T22:34:51.833Z,3.12
2019-02-09T22:40:56.045Z,2.83
2019-02-09T22:47:00.419Z,3.35
2019-02-09T22:53:05.142Z,3.02
2019-02-09T22:59:09.361Z,2.92
2019-02-09T23:05:41.228Z,2.83
2019-02-09T23:11:45.461Z,2.60
2019-02-09T23:17:49.664Z,2.50
2019-02-09T23:23:53.880Z,2.83
2019-02-09T23:29:58.158Z,2.50
2019-02-09T23:36:02.449Z,3.45
2019-02-09T23:42:06.690Z,2.75
2019-02-09T23:48:11.002Z,3.37
2019-02-09T23:54:15.302Z,2.20
